This is the latest recevied weather packets stored in our database for station/object KB2KMM. If no packets are shown the sender has not sent any weather packets the latest 1 day(s).
| Time | Temp. | Humidity | Pressure | Rain* | Wind** | Luminosity | Snow |
|---|---|---|---|---|---|---|---|
| 1778093705 | 13.33° C | 100% | 1008.1 hPa | 0.25 mm | - | - | - |
| 1778091006 | 13.89° C | 100% | 1008.9 hPa | 0.25 mm | - | - | - |
| 1778090705 | 13.89° C | 100% | 1009 hPa | 0.25 mm | - | - | - |
| 1778090105 | 13.33° C | 100% | 1009.2 hPa | 0.51 mm | - | - | - |
| 1778087705 | 13.89° C | 100% | 1009.6 hPa | 0.25 mm | - | - | - |
| 1778086505 | 14.44° C | 100% | 1010.1 hPa | 0 mm | - | - | - |
| 1778085905 | 14.44° C | 100% | 1010.2 hPa | 0 mm | - | - | - |
| 1778083806 | 14.44° C | 100% | 1010.1 hPa | 0 mm | - | - | - |
| 1778081705 | 15° C | 99% | 1010.7 hPa | 0 mm | - | - | - |
| 1778081105 | 15° C | 99% | 1010.8 hPa | 0 mm | - | - | - |
| 1778080806 | 15° C | 99% | 1010.8 hPa | 0 mm | - | - | - |
| 1778080206 | 15° C | 99% | 1010.7 hPa | 0 mm | - | - | - |
| 1778078105 | 15° C | 99% | 1010.5 hPa | 0 mm | - | - | - |
| 1778077806 | 15° C | 99% | 1010.8 hPa | 0 mm | - | - | - |
| 1778076905 | 15.56° C | 99% | 1011 hPa | 0 mm | - | - | - |
| 1778076606 | 15.56° C | 99% | 1011 hPa | 0 mm | - | - | - |
| 1778076005 | 15° C | 100% | 1011 hPa | 0 mm | - | - | - |
| 1778075106 | 15° C | 100% | 1011.3 hPa | 0 mm | - | - | - |
| 1778072106 | 14.44° C | 100% | 1011.1 hPa | 0 mm | - | - | - |
| 1778070606 | 14.44° C | 100% | 1011.2 hPa | 0 mm | - | - | - |
| 1778070006 | 14.44° C | 100% | 1011.4 hPa | 0 mm | - | - | - |
| 1778069406 | 14.44° C | 100% | 1011.6 hPa | 0 mm | - | - | - |
| 1778067306 | 13.89° C | 100% | 1011.2 hPa | 0 mm | - | - | - |
| 1778065205 | 13.33° C | 100% | 1011.3 hPa | 0 mm | - | - | - |
| 1778063705 | 12.78° C | 100% | 1011.1 hPa | 0 mm | - | - | - |
* Rain latest hour (hover to see other rain measurements)
** Current wind speed in m/s (hover to see current wind gust speed)